Prairie Grove, Arkansas
Current Conditions -  °F | °C
As of 4:53 PM on Tuesday 21 Oct 2014 (Local Time) from KFYV Reporting Station
Clear Clear  
Wind Chill: 75°   Ceiling: Unl
Heat Index: 75°   Visibility: 10mi
Dew Point: 53°   Wind: 0mph
Humidity: 46%   Direction: NA
Pressure: 30.07"   Gusts: NA
Location:  35.98°N, 94.32°W
Report Text: KFYV 212153Z 00000KT 10SM CLR 24/12 A3007 RMK AO2 SLP175 T02390117
Loading
Personal Weather Stations






























Interactive Weather Map
Tropical Storm Tracking
New forecast layout! Learn more

10-Day Weather Forecast

Advertisements
Track Severe Weather on mobile